sensor_id;sensor_type;location;lat;lon;timestamp;P1;durP1;ratioP1;P2;durP2;ratioP2
3801;SDS011;1916;51.798;12.246;2023-07-31T00:01:19;3.53;;;2.20;;
3801;SDS011;1916;51.798;12.246;2023-07-31T00:03:21;8.43;;;2.30;;
3801;SDS011;1916;51.798;12.246;2023-07-31T00:05:23;7.03;;;2.80;;
3801;SDS011;1916;51.798;12.246;2023-07-31T00:07:25;8.03;;;2.77;;
3801;SDS011;1916;51.798;12.246;2023-07-31T00:09:28;8.60;;;2.90;;
3801;SDS011;1916;51.798;12.246;2023-07-31T00:11:30;9.13;;;2.40;;
3801;SDS011;1916;51.798;12.246;2023-07-31T00:13:32;3.67;;;2.43;;
3801;SDS011;1916;51.798;12.246;2023-07-31T00:15:34;3.20;;;2.10;;
3801;SDS011;1916;51.798;12.246;2023-07-31T00:17:36;5.70;;;2.10;;
3801;SDS011;1916;51.798;12.246;2023-07-31T00:19:39;6.60;;;2.20;;
3801;SDS011;1916;51.798;12.246;2023-07-31T00:21:41;8.03;;;2.33;;
3801;SDS011;1916;51.798;12.246;2023-07-31T00:23:43;5.20;;;2.77;;
3801;SDS011;1916;51.798;12.246;2023-07-31T00:25:45;4.47;;;2.10;;
3801;SDS011;1916;51.798;12.246;2023-07-31T00:27:48;5.50;;;2.40;;
3801;SDS011;1916;51.798;12.246;2023-07-31T00:29:50;7.20;;;2.67;;
3801;SDS011;1916;51.798;12.246;2023-07-31T00:31:52;4.30;;;2.37;;
3801;SDS011;1916;51.798;12.246;2023-07-31T00:33:54;5.10;;;2.20;;
3801;SDS011;1916;51.798;12.246;2023-07-31T00:35:56;9.80;;;2.40;;
3801;SDS011;1916;51.798;12.246;2023-07-31T00:38:00;2.97;;;2.03;;
3801;SDS011;1916;51.798;12.246;2023-07-31T00:40:02;4.80;;;2.40;;
3801;SDS011;1916;51.798;12.246;2023-07-31T00:42:05;4.43;;;2.47;;
3801;SDS011;1916;51.798;12.246;2023-07-31T00:44:08;2.70;;;2.30;;
3801;SDS011;1916;51.798;12.246;2023-07-31T00:46:10;5.60;;;2.93;;
3801;SDS011;1916;51.798;12.246;2023-07-31T00:48:12;2.13;;;1.93;;
3801;SDS011;1916;51.798;12.246;2023-07-31T00:50:15;4.23;;;2.33;;
3801;SDS011;1916;51.798;12.246;2023-07-31T00:52:17;6.57;;;2.20;;
3801;SDS011;1916;51.798;12.246;2023-07-31T00:54:20;3.10;;;1.97;;
3801;SDS011;1916;51.798;12.246;2023-07-31T00:56:22;5.77;;;2.43;;
3801;SDS011;1916;51.798;12.246;2023-07-31T00:58:25;5.73;;;2.70;;
3801;SDS011;1916;51.798;12.246;2023-07-31T01:00:27;6.17;;;2.67;;
3801;SDS011;1916;51.798;12.246;2023-07-31T01:02:30;7.93;;;2.33;;
3801;SDS011;1916;51.798;12.246;2023-07-31T01:04:33;4.87;;;2.60;;
3801;SDS011;1916;51.798;12.246;2023-07-31T01:06:44;4.57;;;2.57;;
3801;SDS011;1916;51.798;12.246;2023-07-31T01:09:13;4.40;;;2.13;;
3801;SDS011;1916;51.798;12.246;2023-07-31T01:11:38;4.30;;;3.20;;
3801;SDS011;1916;51.798;12.246;2023-07-31T01:13:45;5.20;;;1.90;;
3801;SDS011;1916;51.798;12.246;2023-07-31T01:15:47;3.50;;;2.70;;
3801;SDS011;1916;51.798;12.246;2023-07-31T01:17:49;6.50;;;2.67;;
3801;SDS011;1916;51.798;12.246;2023-07-31T01:19:52;5.17;;;2.20;;
3801;SDS011;1916;51.798;12.246;2023-07-31T01:22:21;6.40;;;2.20;;
3801;SDS011;1916;51.798;12.246;2023-07-31T01:27:02;5.30;;;2.50;;
3801;SDS011;1916;51.798;12.246;2023-07-31T01:29:20;3.60;;;2.20;;
3801;SDS011;1916;51.798;12.246;2023-07-31T01:31:40;4.90;;;2.40;;
3801;SDS011;1916;51.798;12.246;2023-07-31T01:33:43;19.23;;;2.30;;
3801;SDS011;1916;51.798;12.246;2023-07-31T01:35:46;9.50;;;2.43;;
3801;SDS011;1916;51.798;12.246;2023-07-31T01:37:52;4.43;;;2.40;;
3801;SDS011;1916;51.798;12.246;2023-07-31T01:39:55;5.63;;;2.20;;
3801;SDS011;1916;51.798;12.246;2023-07-31T01:41:58;3.30;;;2.37;;
3801;SDS011;1916;51.798;12.246;2023-07-31T01:44:00;8.27;;;2.43;;
3801;SDS011;1916;51.798;12.246;2023-07-31T01:46:02;4.37;;;2.60;;
3801;SDS011;1916;51.798;12.246;2023-07-31T01:48:04;4.20;;;2.80;;
3801;SDS011;1916;51.798;12.246;2023-07-31T01:50:07;3.77;;;2.73;;
3801;SDS011;1916;51.798;12.246;2023-07-31T01:52:09;7.20;;;3.40;;
3801;SDS011;1916;51.798;12.246;2023-07-31T01:54:12;7.77;;;2.63;;
3801;SDS011;1916;51.798;12.246;2023-07-31T01:56:14;10.60;;;2.30;;
3801;SDS011;1916;51.798;12.246;2023-07-31T01:58:16;5.87;;;2.60;;
3801;SDS011;1916;51.798;12.246;2023-07-31T02:00:19;4.40;;;2.53;;
3801;SDS011;1916;51.798;12.246;2023-07-31T02:02:21;5.80;;;3.00;;
3801;SDS011;1916;51.798;12.246;2023-07-31T02:04:26;4.30;;;2.47;;
3801;SDS011;1916;51.798;12.246;2023-07-31T02:06:28;4.67;;;2.50;;
3801;SDS011;1916;51.798;12.246;2023-07-31T02:08:30;5.17;;;2.60;;
3801;SDS011;1916;51.798;12.246;2023-07-31T02:10:32;6.43;;;2.63;;
3801;SDS011;1916;51.798;12.246;2023-07-31T02:12:34;9.23;;;3.10;;
3801;SDS011;1916;51.798;12.246;2023-07-31T02:14:37;4.90;;;2.40;;
3801;SDS011;1916;51.798;12.246;2023-07-31T02:16:39;4.57;;;2.03;;
3801;SDS011;1916;51.798;12.246;2023-07-31T02:18:41;5.43;;;2.90;;
3801;SDS011;1916;51.798;12.246;2023-07-31T02:20:43;10.27;;;2.50;;
3801;SDS011;1916;51.798;12.246;2023-07-31T02:22:47;6.47;;;2.53;;
3801;SDS011;1916;51.798;12.246;2023-07-31T02:24:50;4.13;;;2.27;;
3801;SDS011;1916;51.798;12.246;2023-07-31T02:26:52;3.20;;;1.97;;
3801;SDS011;1916;51.798;12.246;2023-07-31T02:28:54;2.53;;;1.77;;
3801;SDS011;1916;51.798;12.246;2023-07-31T02:30:56;3.17;;;1.90;;
3801;SDS011;1916;51.798;12.246;2023-07-31T02:32:58;5.10;;;2.20;;
3801;SDS011;1916;51.798;12.246;2023-07-31T02:35:00;2.00;;;1.63;;
3801;SDS011;1916;51.798;12.246;2023-07-31T02:37:03;3.83;;;1.93;;
3801;SDS011;1916;51.798;12.246;2023-07-31T02:39:05;3.30;;;2.03;;
3801;SDS011;1916;51.798;12.246;2023-07-31T02:41:07;9.10;;;1.83;;
3801;SDS011;1916;51.798;12.246;2023-07-31T02:43:09;3.20;;;2.13;;
3801;SDS011;1916;51.798;12.246;2023-07-31T02:45:11;2.63;;;1.83;;
3801;SDS011;1916;51.798;12.246;2023-07-31T02:47:13;1.70;;;1.60;;
3801;SDS011;1916;51.798;12.246;2023-07-31T02:49:16;3.07;;;1.97;;
3801;SDS011;1916;51.798;12.246;2023-07-31T02:51:18;2.00;;;1.80;;
3801;SDS011;1916;51.798;12.246;2023-07-31T02:53:20;4.20;;;2.13;;
3801;SDS011;1916;51.798;12.246;2023-07-31T02:55:22;7.80;;;2.60;;
3801;SDS011;1916;51.798;12.246;2023-07-31T02:57:24;2.53;;;2.00;;
3801;SDS011;1916;51.798;12.246;2023-07-31T02:59:27;4.17;;;2.00;;
3801;SDS011;1916;51.798;12.246;2023-07-31T03:01:29;2.30;;;1.73;;
3801;SDS011;1916;51.798;12.246;2023-07-31T03:03:32;4.90;;;2.50;;
3801;SDS011;1916;51.798;12.246;2023-07-31T03:05:35;3.67;;;1.70;;
3801;SDS011;1916;51.798;12.246;2023-07-31T03:07:37;4.37;;;2.03;;
3801;SDS011;1916;51.798;12.246;2023-07-31T03:09:40;4.23;;;1.80;;
3801;SDS011;1916;51.798;12.246;2023-07-31T03:11:42;4.33;;;1.93;;
3801;SDS011;1916;51.798;12.246;2023-07-31T03:13:44;2.90;;;2.00;;
3801;SDS011;1916;51.798;12.246;2023-07-31T03:15:46;4.50;;;1.93;;
3801;SDS011;1916;51.798;12.246;2023-07-31T03:17:48;6.43;;;1.83;;
3801;SDS011;1916;51.798;12.246;2023-07-31T03:19:50;3.93;;;2.20;;
3801;SDS011;1916;51.798;12.246;2023-07-31T03:21:52;7.30;;;2.37;;
3801;SDS011;1916;51.798;12.246;2023-07-31T03:23:54;3.93;;;2.30;;
3801;SDS011;1916;51.798;12.246;2023-07-31T03:26:00;4.00;;;2.20;;
3801;SDS011;1916;51.798;12.246;2023-07-31T03:28:05;4.20;;;2.37;;
3801;SDS011;1916;51.798;12.246;2023-07-31T03:30:07;3.40;;;2.40;;
3801;SDS011;1916;51.798;12.246;2023-07-31T03:32:10;4.43;;;2.73;;
3801;SDS011;1916;51.798;12.246;2023-07-31T03:34:12;2.50;;;2.20;;
3801;SDS011;1916;51.798;12.246;2023-07-31T03:36:15;5.17;;;2.63;;
3801;SDS011;1916;51.798;12.246;2023-07-31T03:38:17;3.10;;;2.27;;
3801;SDS011;1916;51.798;12.246;2023-07-31T03:40:19;6.53;;;2.50;;
3801;SDS011;1916;51.798;12.246;2023-07-31T03:42:21;7.50;;;2.70;;
3801;SDS011;1916;51.798;12.246;2023-07-31T03:44:25;2.80;;;2.40;;
3801;SDS011;1916;51.798;12.246;2023-07-31T03:46:27;9.47;;;2.73;;
3801;SDS011;1916;51.798;12.246;2023-07-31T03:48:29;4.33;;;2.90;;
3801;SDS011;1916;51.798;12.246;2023-07-31T03:50:31;6.90;;;3.10;;
3801;SDS011;1916;51.798;12.246;2023-07-31T03:52:35;5.77;;;3.07;;
3801;SDS011;1916;51.798;12.246;2023-07-31T03:54:37;10.47;;;3.20;;
3801;SDS011;1916;51.798;12.246;2023-07-31T03:56:39;5.63;;;3.00;;
3801;SDS011;1916;51.798;12.246;2023-07-31T03:58:41;7.63;;;2.63;;
3801;SDS011;1916;51.798;12.246;2023-07-31T04:00:45;4.70;;;2.83;;
3801;SDS011;1916;51.798;12.246;2023-07-31T04:02:47;8.10;;;3.10;;
3801;SDS011;1916;51.798;12.246;2023-07-31T04:04:49;5.10;;;2.77;;
3801;SDS011;1916;51.798;12.246;2023-07-31T04:06:51;6.53;;;3.73;;
3801;SDS011;1916;51.798;12.246;2023-07-31T04:08:53;5.27;;;2.83;;
3801;SDS011;1916;51.798;12.246;2023-07-31T04:10:55;4.40;;;2.93;;
3801;SDS011;1916;51.798;12.246;2023-07-31T04:12:57;4.93;;;3.10;;
3801;SDS011;1916;51.798;12.246;2023-07-31T04:15:00;3.50;;;3.00;;
3801;SDS011;1916;51.798;12.246;2023-07-31T04:17:02;5.20;;;2.80;;
3801;SDS011;1916;51.798;12.246;2023-07-31T04:19:04;5.20;;;3.17;;
3801;SDS011;1916;51.798;12.246;2023-07-31T04:21:06;8.50;;;3.30;;
3801;SDS011;1916;51.798;12.246;2023-07-31T04:23:08;5.57;;;3.10;;
3801;SDS011;1916;51.798;12.246;2023-07-31T04:25:10;5.40;;;3.47;;
3801;SDS011;1916;51.798;12.246;2023-07-31T04:27:13;8.87;;;2.97;;
3801;SDS011;1916;51.798;12.246;2023-07-31T04:29:15;5.50;;;2.90;;
3801;SDS011;1916;51.798;12.246;2023-07-31T04:31:17;5.53;;;3.00;;
3801;SDS011;1916;51.798;12.246;2023-07-31T04:33:19;5.60;;;3.13;;
3801;SDS011;1916;51.798;12.246;2023-07-31T04:35:21;5.13;;;3.43;;
3801;SDS011;1916;51.798;12.246;2023-07-31T04:37:24;6.27;;;3.27;;
3801;SDS011;1916;51.798;12.246;2023-07-31T04:39:26;5.87;;;3.67;;
3801;SDS011;1916;51.798;12.246;2023-07-31T04:41:28;7.33;;;3.50;;
3801;SDS011;1916;51.798;12.246;2023-07-31T04:43:30;8.10;;;3.47;;
3801;SDS011;1916;51.798;12.246;2023-07-31T04:45:33;5.07;;;2.73;;
3801;SDS011;1916;51.798;12.246;2023-07-31T04:47:35;6.20;;;3.30;;
3801;SDS011;1916;51.798;12.246;2023-07-31T04:49:37;5.60;;;3.40;;
3801;SDS011;1916;51.798;12.246;2023-07-31T04:51:39;5.07;;;3.13;;
3801;SDS011;1916;51.798;12.246;2023-07-31T04:53:41;7.57;;;3.30;;
3801;SDS011;1916;51.798;12.246;2023-07-31T04:55:43;6.80;;;3.23;;
3801;SDS011;1916;51.798;12.246;2023-07-31T04:57:45;4.73;;;2.80;;
3801;SDS011;1916;51.798;12.246;2023-07-31T04:59:47;4.33;;;2.90;;
3801;SDS011;1916;51.798;12.246;2023-07-31T05:01:52;6.57;;;3.13;;
3801;SDS011;1916;51.798;12.246;2023-07-31T05:03:54;4.40;;;3.10;;
3801;SDS011;1916;51.798;12.246;2023-07-31T05:05:56;3.63;;;2.77;;
3801;SDS011;1916;51.798;12.246;2023-07-31T05:07:58;4.60;;;2.60;;
3801;SDS011;1916;51.798;12.246;2023-07-31T05:10:00;6.70;;;2.67;;
3801;SDS011;1916;51.798;12.246;2023-07-31T05:12:04;4.40;;;2.83;;
3801;SDS011;1916;51.798;12.246;2023-07-31T05:14:06;5.27;;;3.63;;
3801;SDS011;1916;51.798;12.246;2023-07-31T05:16:09;4.70;;;3.00;;
3801;SDS011;1916;51.798;12.246;2023-07-31T05:18:11;3.00;;;2.43;;
3801;SDS011;1916;51.798;12.246;2023-07-31T05:20:13;4.73;;;2.60;;
3801;SDS011;1916;51.798;12.246;2023-07-31T05:22:16;4.67;;;2.90;;
3801;SDS011;1916;51.798;12.246;2023-07-31T05:24:18;7.00;;;2.80;;
3801;SDS011;1916;51.798;12.246;2023-07-31T05:26:20;6.90;;;2.80;;
3801;SDS011;1916;51.798;12.246;2023-07-31T05:28:22;7.73;;;3.23;;
3801;SDS011;1916;51.798;12.246;2023-07-31T05:30:25;4.57;;;2.70;;
3801;SDS011;1916;51.798;12.246;2023-07-31T05:32:27;6.83;;;2.83;;
3801;SDS011;1916;51.798;12.246;2023-07-31T05:34:29;6.53;;;3.03;;
3801;SDS011;1916;51.798;12.246;2023-07-31T05:36:31;9.10;;;3.33;;
3801;SDS011;1916;51.798;12.246;2023-07-31T05:38:33;8.10;;;3.70;;
3801;SDS011;1916;51.798;12.246;2023-07-31T05:40:35;6.57;;;3.43;;
3801;SDS011;1916;51.798;12.246;2023-07-31T05:42:37;5.00;;;3.17;;
3801;SDS011;1916;51.798;12.246;2023-07-31T05:44:40;4.20;;;3.63;;
3801;SDS011;1916;51.798;12.246;2023-07-31T05:46:42;9.53;;;3.53;;
3801;SDS011;1916;51.798;12.246;2023-07-31T05:48:45;4.50;;;3.00;;
3801;SDS011;1916;51.798;12.246;2023-07-31T05:50:47;7.23;;;3.17;;
3801;SDS011;1916;51.798;12.246;2023-07-31T05:52:49;7.60;;;3.30;;
3801;SDS011;1916;51.798;12.246;2023-07-31T05:54:51;5.53;;;2.87;;
3801;SDS011;1916;51.798;12.246;2023-07-31T05:56:53;5.23;;;3.80;;
3801;SDS011;1916;51.798;12.246;2023-07-31T05:58:55;10.30;;;2.90;;
3801;SDS011;1916;51.798;12.246;2023-07-31T06:00:58;7.80;;;3.47;;
3801;SDS011;1916;51.798;12.246;2023-07-31T06:03:01;7.60;;;3.33;;
3801;SDS011;1916;51.798;12.246;2023-07-31T06:05:03;5.70;;;3.00;;
3801;SDS011;1916;51.798;12.246;2023-07-31T06:07:07;5.20;;;3.77;;
3801;SDS011;1916;51.798;12.246;2023-07-31T06:09:09;5.50;;;3.43;;
3801;SDS011;1916;51.798;12.246;2023-07-31T06:11:11;6.77;;;3.43;;
3801;SDS011;1916;51.798;12.246;2023-07-31T06:13:14;7.53;;;3.10;;
3801;SDS011;1916;51.798;12.246;2023-07-31T06:15:16;7.77;;;3.63;;
3801;SDS011;1916;51.798;12.246;2023-07-31T06:17:19;6.13;;;3.60;;
3801;SDS011;1916;51.798;12.246;2023-07-31T06:19:21;5.73;;;3.30;;
3801;SDS011;1916;51.798;12.246;2023-07-31T06:21:24;7.70;;;3.63;;
3801;SDS011;1916;51.798;12.246;2023-07-31T06:23:26;6.30;;;2.93;;
3801;SDS011;1916;51.798;12.246;2023-07-31T06:25:28;5.90;;;3.70;;
3801;SDS011;1916;51.798;12.246;2023-07-31T06:27:30;7.23;;;3.53;;
3801;SDS011;1916;51.798;12.246;2023-07-31T06:29:32;5.70;;;3.20;;
3801;SDS011;1916;51.798;12.246;2023-07-31T06:31:34;4.70;;;3.13;;
3801;SDS011;1916;51.798;12.246;2023-07-31T06:33:37;6.07;;;3.27;;
3801;SDS011;1916;51.798;12.246;2023-07-31T06:35:39;4.90;;;3.33;;
3801;SDS011;1916;51.798;12.246;2023-07-31T06:37:41;6.23;;;2.90;;
3801;SDS011;1916;51.798;12.246;2023-07-31T06:39:45;12.80;;;3.80;;
3801;SDS011;1916;51.798;12.246;2023-07-31T06:41:47;5.17;;;3.60;;
3801;SDS011;1916;51.798;12.246;2023-07-31T06:43:50;4.67;;;2.90;;
3801;SDS011;1916;51.798;12.246;2023-07-31T06:45:52;6.07;;;3.43;;
3801;SDS011;1916;51.798;12.246;2023-07-31T06:47:54;6.00;;;3.20;;
3801;SDS011;1916;51.798;12.246;2023-07-31T06:49:56;9.83;;;3.50;;
3801;SDS011;1916;51.798;12.246;2023-07-31T06:51:58;6.63;;;3.10;;
3801;SDS011;1916;51.798;12.246;2023-07-31T06:54:00;4.30;;;3.00;;
3801;SDS011;1916;51.798;12.246;2023-07-31T06:56:03;10.73;;;2.97;;
3801;SDS011;1916;51.798;12.246;2023-07-31T06:58:05;6.33;;;2.93;;
3801;SDS011;1916;51.798;12.246;2023-07-31T07:00:07;5.80;;;3.40;;
3801;SDS011;1916;51.798;12.246;2023-07-31T07:02:10;6.47;;;3.23;;
3801;SDS011;1916;51.798;12.246;2023-07-31T07:04:13;7.20;;;2.80;;
3801;SDS011;1916;51.798;12.246;2023-07-31T07:06:15;4.33;;;3.33;;
3801;SDS011;1916;51.798;12.246;2023-07-31T07:08:18;6.23;;;2.97;;
3801;SDS011;1916;51.798;12.246;2023-07-31T07:10:20;6.60;;;3.47;;
3801;SDS011;1916;51.798;12.246;2023-07-31T07:12:22;6.23;;;2.90;;
3801;SDS011;1916;51.798;12.246;2023-07-31T07:14:24;5.90;;;4.10;;
3801;SDS011;1916;51.798;12.246;2023-07-31T07:16:28;8.90;;;3.03;;
3801;SDS011;1916;51.798;12.246;2023-07-31T07:18:30;10.30;;;3.17;;
3801;SDS011;1916;51.798;12.246;2023-07-31T07:20:32;4.53;;;2.57;;
3801;SDS011;1916;51.798;12.246;2023-07-31T07:22:34;7.47;;;3.17;;
3801;SDS011;1916;51.798;12.246;2023-07-31T07:24:37;5.90;;;2.80;;
3801;SDS011;1916;51.798;12.246;2023-07-31T07:26:39;9.70;;;3.33;;
3801;SDS011;1916;51.798;12.246;2023-07-31T07:28:42;3.60;;;2.97;;
3801;SDS011;1916;51.798;12.246;2023-07-31T07:30:44;3.87;;;3.03;;
3801;SDS011;1916;51.798;12.246;2023-07-31T07:32:46;6.70;;;2.93;;
3801;SDS011;1916;51.798;12.246;2023-07-31T07:34:48;6.10;;;3.00;;
3801;SDS011;1916;51.798;12.246;2023-07-31T07:36:50;12.97;;;3.40;;
3801;SDS011;1916;51.798;12.246;2023-07-31T07:38:52;6.23;;;2.70;;
3801;SDS011;1916;51.798;12.246;2023-07-31T07:40:54;4.17;;;2.70;;
3801;SDS011;1916;51.798;12.246;2023-07-31T07:42:56;7.13;;;3.10;;
3801;SDS011;1916;51.798;12.246;2023-07-31T07:44:59;3.37;;;2.57;;
3801;SDS011;1916;51.798;12.246;2023-07-31T07:47:01;8.40;;;2.83;;
3801;SDS011;1916;51.798;12.246;2023-07-31T07:49:03;3.30;;;2.50;;
3801;SDS011;1916;51.798;12.246;2023-07-31T07:51:05;5.80;;;3.03;;
3801;SDS011;1916;51.798;12.246;2023-07-31T07:53:07;5.27;;;2.33;;
3801;SDS011;1916;51.798;12.246;2023-07-31T07:55:10;6.87;;;3.07;;
3801;SDS011;1916;51.798;12.246;2023-07-31T07:57:12;19.40;;;2.80;;
3801;SDS011;1916;51.798;12.246;2023-07-31T07:59:14;5.03;;;2.77;;
3801;SDS011;1916;51.798;12.246;2023-07-31T08:01:16;5.03;;;3.00;;
3801;SDS011;1916;51.798;12.246;2023-07-31T08:03:18;7.37;;;3.03;;
3801;SDS011;1916;51.798;12.246;2023-07-31T08:05:21;3.23;;;2.63;;
3801;SDS011;1916;51.798;12.246;2023-07-31T08:07:23;4.90;;;3.10;;
3801;SDS011;1916;51.798;12.246;2023-07-31T08:09:25;4.47;;;2.70;;
3801;SDS011;1916;51.798;12.246;2023-07-31T08:11:27;3.13;;;2.30;;
3801;SDS011;1916;51.798;12.246;2023-07-31T08:13:29;3.37;;;2.60;;
3801;SDS011;1916;51.798;12.246;2023-07-31T08:15:31;7.70;;;2.80;;
3801;SDS011;1916;51.798;12.246;2023-07-31T08:17:33;4.43;;;2.83;;
3801;SDS011;1916;51.798;12.246;2023-07-31T08:19:36;6.17;;;2.70;;
3801;SDS011;1916;51.798;12.246;2023-07-31T08:21:38;3.77;;;2.63;;
3801;SDS011;1916;51.798;12.246;2023-07-31T08:23:40;4.93;;;2.80;;
3801;SDS011;1916;51.798;12.246;2023-07-31T08:25:42;4.23;;;2.83;;
3801;SDS011;1916;51.798;12.246;2023-07-31T08:27:44;3.90;;;2.43;;
3801;SDS011;1916;51.798;12.246;2023-07-31T08:29:46;9.93;;;2.63;;
3801;SDS011;1916;51.798;12.246;2023-07-31T08:31:49;3.63;;;2.53;;
3801;SDS011;1916;51.798;12.246;2023-07-31T08:33:51;8.70;;;2.37;;
3801;SDS011;1916;51.798;12.246;2023-07-31T08:35:53;4.73;;;2.70;;
3801;SDS011;1916;51.798;12.246;2023-07-31T08:37:55;4.10;;;2.73;;
3801;SDS011;1916;51.798;12.246;2023-07-31T08:39:57;3.90;;;2.70;;
3801;SDS011;1916;51.798;12.246;2023-07-31T08:42:00;5.90;;;2.77;;
3801;SDS011;1916;51.798;12.246;2023-07-31T08:44:02;5.83;;;2.97;;
3801;SDS011;1916;51.798;12.246;2023-07-31T08:46:04;8.30;;;3.00;;
3801;SDS011;1916;51.798;12.246;2023-07-31T08:48:07;7.53;;;2.90;;
3801;SDS011;1916;51.798;12.246;2023-07-31T08:50:09;3.37;;;2.57;;
3801;SDS011;1916;51.798;12.246;2023-07-31T08:52:12;6.00;;;1.90;;
3801;SDS011;1916;51.798;12.246;2023-07-31T08:54:14;3.40;;;2.37;;
3801;SDS011;1916;51.798;12.246;2023-07-31T08:56:16;4.20;;;2.80;;
3801;SDS011;1916;51.798;12.246;2023-07-31T08:58:19;4.00;;;2.53;;
3801;SDS011;1916;51.798;12.246;2023-07-31T09:00:22;3.90;;;2.67;;
3801;SDS011;1916;51.798;12.246;2023-07-31T09:02:27;5.10;;;2.83;;
3801;SDS011;1916;51.798;12.246;2023-07-31T09:04:33;2.90;;;2.17;;
3801;SDS011;1916;51.798;12.246;2023-07-31T09:06:36;4.70;;;2.53;;
3801;SDS011;1916;51.798;12.246;2023-07-31T09:08:39;4.07;;;2.23;;
3801;SDS011;1916;51.798;12.246;2023-07-31T09:10:44;5.30;;;2.87;;
3801;SDS011;1916;51.798;12.246;2023-07-31T09:12:48;6.30;;;2.40;;
3801;SDS011;1916;51.798;12.246;2023-07-31T09:14:51;4.80;;;2.67;;
3801;SDS011;1916;51.798;12.246;2023-07-31T09:16:57;4.50;;;2.83;;
3801;SDS011;1916;51.798;12.246;2023-07-31T09:19:01;4.17;;;2.10;;
3801;SDS011;1916;51.798;12.246;2023-07-31T09:21:05;6.43;;;2.90;;
3801;SDS011;1916;51.798;12.246;2023-07-31T09:23:16;3.00;;;2.00;;
3801;SDS011;1916;51.798;12.246;2023-07-31T09:25:19;5.93;;;3.03;;
3801;SDS011;1916;51.798;12.246;2023-07-31T09:27:23;5.07;;;2.70;;
3801;SDS011;1916;51.798;12.246;2023-07-31T09:29:25;3.07;;;2.30;;
3801;SDS011;1916;51.798;12.246;2023-07-31T09:31:32;3.50;;;2.20;;
3801;SDS011;1916;51.798;12.246;2023-07-31T09:33:34;4.80;;;2.50;;
3801;SDS011;1916;51.798;12.246;2023-07-31T09:35:58;4.40;;;2.50;;
3801;SDS011;1916;51.798;12.246;2023-07-31T09:38:05;5.30;;;2.70;;
3801;SDS011;1916;51.798;12.246;2023-07-31T09:40:08;4.33;;;2.40;;
3801;SDS011;1916;51.798;12.246;2023-07-31T09:42:11;5.87;;;3.07;;
3801;SDS011;1916;51.798;12.246;2023-07-31T09:44:13;4.73;;;2.70;;
3801;SDS011;1916;51.798;12.246;2023-07-31T09:46:15;3.70;;;2.43;;
3801;SDS011;1916;51.798;12.246;2023-07-31T09:48:17;3.20;;;2.40;;
3801;SDS011;1916;51.798;12.246;2023-07-31T09:50:21;7.47;;;2.67;;
3801;SDS011;1916;51.798;12.246;2023-07-31T09:52:25;12.03;;;2.57;;
3801;SDS011;1916;51.798;12.246;2023-07-31T09:54:29;4.13;;;2.63;;
3801;SDS011;1916;51.798;12.246;2023-07-31T09:56:31;2.17;;;1.97;;
3801;SDS011;1916;51.798;12.246;2023-07-31T09:58:34;3.70;;;2.07;;
3801;SDS011;1916;51.798;12.246;2023-07-31T10:00:37;4.27;;;1.80;;
3801;SDS011;1916;51.798;12.246;2023-07-31T10:02:40;4.80;;;2.00;;
3801;SDS011;1916;51.798;12.246;2023-07-31T10:04:43;6.90;;;1.93;;
3801;SDS011;1916;51.798;12.246;2023-07-31T10:06:47;4.97;;;1.90;;
3801;SDS011;1916;51.798;12.246;2023-07-31T10:08:51;2.40;;;1.80;;
3801;SDS011;1916;51.798;12.246;2023-07-31T10:10:54;2.67;;;1.90;;
3801;SDS011;1916;51.798;12.246;2023-07-31T10:13:00;3.60;;;2.50;;
3801;SDS011;1916;51.798;12.246;2023-07-31T10:15:03;10.07;;;2.30;;
3801;SDS011;1916;51.798;12.246;2023-07-31T10:17:06;4.00;;;2.10;;
3801;SDS011;1916;51.798;12.246;2023-07-31T10:19:09;5.47;;;2.10;;
3801;SDS011;1916;51.798;12.246;2023-07-31T10:21:12;4.57;;;1.97;;
3801;SDS011;1916;51.798;12.246;2023-07-31T10:23:14;3.00;;;2.37;;
3801;SDS011;1916;51.798;12.246;2023-07-31T10:25:17;6.53;;;2.50;;
3801;SDS011;1916;51.798;12.246;2023-07-31T10:27:20;3.60;;;2.40;;
3801;SDS011;1916;51.798;12.246;2023-07-31T10:29:22;4.50;;;2.70;;
3801;SDS011;1916;51.798;12.246;2023-07-31T10:31:26;4.20;;;2.47;;
3801;SDS011;1916;51.798;12.246;2023-07-31T10:33:29;3.07;;;2.30;;
3801;SDS011;1916;51.798;12.246;2023-07-31T10:35:31;3.20;;;2.37;;
3801;SDS011;1916;51.798;12.246;2023-07-31T10:37:40;3.30;;;2.40;;
3801;SDS011;1916;51.798;12.246;2023-07-31T10:39:46;4.50;;;2.60;;
3801;SDS011;1916;51.798;12.246;2023-07-31T10:41:57;3.40;;;2.60;;
3801;SDS011;1916;51.798;12.246;2023-07-31T10:43:59;5.30;;;2.43;;
3801;SDS011;1916;51.798;12.246;2023-07-31T10:46:09;5.27;;;2.43;;
3801;SDS011;1916;51.798;12.246;2023-07-31T10:48:14;3.50;;;2.20;;
3801;SDS011;1916;51.798;12.246;2023-07-31T10:50:18;3.90;;;2.93;;
3801;SDS011;1916;51.798;12.246;2023-07-31T10:52:21;6.10;;;2.80;;
3801;SDS011;1916;51.798;12.246;2023-07-31T10:54:28;2.83;;;2.40;;
3801;SDS011;1916;51.798;12.246;2023-07-31T10:56:30;4.60;;;2.67;;
3801;SDS011;1916;51.798;12.246;2023-07-31T10:58:40;4.90;;;2.73;;
3801;SDS011;1916;51.798;12.246;2023-07-31T11:00:45;6.43;;;3.43;;
3801;SDS011;1916;51.798;12.246;2023-07-31T11:03:01;4.50;;;2.50;;
3801;SDS011;1916;51.798;12.246;2023-07-31T11:05:05;5.30;;;2.17;;
3801;SDS011;1916;51.798;12.246;2023-07-31T11:07:09;9.07;;;2.60;;
3801;SDS011;1916;51.798;12.246;2023-07-31T11:09:13;5.50;;;3.23;;
3801;SDS011;1916;51.798;12.246;2023-07-31T11:11:17;3.93;;;2.87;;
3801;SDS011;1916;51.798;12.246;2023-07-31T11:13:19;5.10;;;2.93;;
3801;SDS011;1916;51.798;12.246;2023-07-31T11:15:21;4.73;;;3.03;;
3801;SDS011;1916;51.798;12.246;2023-07-31T11:17:24;6.83;;;2.70;;
3801;SDS011;1916;51.798;12.246;2023-07-31T11:19:27;6.37;;;2.90;;
3801;SDS011;1916;51.798;12.246;2023-07-31T11:21:30;3.63;;;2.40;;
3801;SDS011;1916;51.798;12.246;2023-07-31T11:23:32;4.80;;;2.57;;
3801;SDS011;1916;51.798;12.246;2023-07-31T11:25:34;4.80;;;2.63;;
3801;SDS011;1916;51.798;12.246;2023-07-31T11:27:39;7.00;;;3.00;;
3801;SDS011;1916;51.798;12.246;2023-07-31T11:29:42;2.80;;;2.40;;
3801;SDS011;1916;51.798;12.246;2023-07-31T11:31:46;6.63;;;3.27;;
3801;SDS011;1916;51.798;12.246;2023-07-31T11:33:50;5.93;;;2.70;;
3801;SDS011;1916;51.798;12.246;2023-07-31T11:35:52;7.83;;;2.73;;
3801;SDS011;1916;51.798;12.246;2023-07-31T11:37:55;3.50;;;2.80;;
3801;SDS011;1916;51.798;12.246;2023-07-31T11:40:00;4.67;;;2.43;;
3801;SDS011;1916;51.798;12.246;2023-07-31T11:42:03;5.17;;;3.00;;
3801;SDS011;1916;51.798;12.246;2023-07-31T11:44:05;2.63;;;2.37;;
3801;SDS011;1916;51.798;12.246;2023-07-31T11:46:26;5.30;;;3.10;;
3801;SDS011;1916;51.798;12.246;2023-07-31T11:48:29;4.50;;;2.83;;
3801;SDS011;1916;51.798;12.246;2023-07-31T11:50:35;6.30;;;2.83;;
3801;SDS011;1916;51.798;12.246;2023-07-31T11:52:39;5.27;;;2.73;;
3801;SDS011;1916;51.798;12.246;2023-07-31T11:54:42;4.37;;;3.03;;
3801;SDS011;1916;51.798;12.246;2023-07-31T11:56:44;2.93;;;2.47;;
3801;SDS011;1916;51.798;12.246;2023-07-31T11:58:47;3.40;;;2.93;;
3801;SDS011;1916;51.798;12.246;2023-07-31T12:00:51;3.47;;;2.37;;
3801;SDS011;1916;51.798;12.246;2023-07-31T12:02:53;3.33;;;2.40;;
3801;SDS011;1916;51.798;12.246;2023-07-31T12:04:56;5.20;;;2.50;;
3801;SDS011;1916;51.798;12.246;2023-07-31T12:07:00;5.53;;;2.60;;
3801;SDS011;1916;51.798;12.246;2023-07-31T12:09:05;4.70;;;2.70;;
3801;SDS011;1916;51.798;12.246;2023-07-31T12:11:08;2.40;;;2.20;;
3801;SDS011;1916;51.798;12.246;2023-07-31T12:13:12;5.23;;;2.60;;
3801;SDS011;1916;51.798;12.246;2023-07-31T12:15:44;4.70;;;2.67;;
3801;SDS011;1916;51.798;12.246;2023-07-31T12:17:47;4.17;;;2.80;;
3801;SDS011;1916;51.798;12.246;2023-07-31T12:19:49;4.60;;;2.70;;
3801;SDS011;1916;51.798;12.246;2023-07-31T12:21:51;3.80;;;2.97;;
3801;SDS011;1916;51.798;12.246;2023-07-31T12:23:54;5.03;;;3.03;;
3801;SDS011;1916;51.798;12.246;2023-07-31T12:26:04;5.40;;;2.80;;
3801;SDS011;1916;51.798;12.246;2023-07-31T12:28:07;4.83;;;3.00;;
3801;SDS011;1916;51.798;12.246;2023-07-31T12:30:26;3.30;;;2.53;;
3801;SDS011;1916;51.798;12.246;2023-07-31T12:32:29;5.73;;;2.80;;
3801;SDS011;1916;51.798;12.246;2023-07-31T12:34:32;7.40;;;2.80;;
3801;SDS011;1916;51.798;12.246;2023-07-31T12:36:45;5.67;;;2.77;;